sensor_id;sensor_type;location;lat;lon;timestamp;pressure;altitude;pressure_sealevel;temperature;humidity
11971;BME280;6045;42.682;23.294;2023-05-10T00:00:22;94896.63;;;9.79;100.00
11971;BME280;6045;42.682;23.294;2023-05-10T00:02:50;94886.53;;;9.81;100.00
11971;BME280;6045;42.682;23.294;2023-05-10T00:05:17;94890.28;;;9.73;100.00
11971;BME280;6045;42.682;23.294;2023-05-10T00:07:44;94887.25;;;9.70;100.00
11971;BME280;6045;42.682;23.294;2023-05-10T00:10:11;94875.53;;;9.71;100.00
11971;BME280;6045;42.682;23.294;2023-05-10T00:12:38;94884.94;;;9.73;100.00
11971;BME280;6045;42.682;23.294;2023-05-10T00:15:06;94880.56;;;9.60;100.00
11971;BME280;6045;42.682;23.294;2023-05-10T00:17:32;94878.66;;;9.68;100.00
11971;BME280;6045;42.682;23.294;2023-05-10T00:20:01;94879.38;;;9.50;100.00
11971;BME280;6045;42.682;23.294;2023-05-10T00:22:30;94875.53;;;9.46;100.00
11971;BME280;6045;42.682;23.294;2023-05-10T00:24:57;94878.97;;;9.53;100.00
11971;BME280;6045;42.682;23.294;2023-05-10T00:27:23;94878.25;;;9.39;100.00
11971;BME280;6045;42.682;23.294;2023-05-10T00:29:50;94879.31;;;9.32;100.00
11971;BME280;6045;42.682;23.294;2023-05-10T00:32:17;94875.41;;;9.34;100.00
11971;BME280;6045;42.682;23.294;2023-05-10T00:34:43;94882.81;;;9.32;100.00
11971;BME280;6045;42.682;23.294;2023-05-10T00:37:11;94877.03;;;9.35;100.00
11971;BME280;6045;42.682;23.294;2023-05-10T00:39:38;94870.28;;;9.33;100.00
11971;BME280;6045;42.682;23.294;2023-05-10T00:42:05;94866.63;;;9.27;100.00
11971;BME280;6045;42.682;23.294;2023-05-10T00:44:31;94872.75;;;9.34;100.00
11971;BME280;6045;42.682;23.294;2023-05-10T00:46:59;94875.22;;;9.29;100.00
11971;BME280;6045;42.682;23.294;2023-05-10T00:49:26;94858.94;;;9.37;100.00
11971;BME280;6045;42.682;23.294;2023-05-10T00:51:53;94871.75;;;9.29;100.00
11971;BME280;6045;42.682;23.294;2023-05-10T00:54:21;94860.25;;;9.28;100.00
11971;BME280;6045;42.682;23.294;2023-05-10T00:56:48;94858.19;;;9.30;100.00
11971;BME280;6045;42.682;23.294;2023-05-10T00:59:14;94859.59;;;9.33;100.00
11971;BME280;6045;42.682;23.294;2023-05-10T01:01:43;94859.00;;;9.31;100.00
11971;BME280;6045;42.682;23.294;2023-05-10T01:04:11;94858.19;;;9.30;100.00
11971;BME280;6045;42.682;23.294;2023-05-10T01:06:38;94861.19;;;9.16;100.00
11971;BME280;6045;42.682;23.294;2023-05-10T01:09:05;94864.81;;;9.21;100.00
11971;BME280;6045;42.682;23.294;2023-05-10T01:11:34;94860.94;;;9.17;100.00
11971;BME280;6045;42.682;23.294;2023-05-10T01:14:02;94861.31;;;9.27;100.00
11971;BME280;6045;42.682;23.294;2023-05-10T01:16:29;94861.47;;;9.32;100.00
11971;BME280;6045;42.682;23.294;2023-05-10T01:18:58;94853.31;;;9.27;100.00
11971;BME280;6045;42.682;23.294;2023-05-10T01:21:35;94852.94;;;9.17;100.00
11971;BME280;6045;42.682;23.294;2023-05-10T01:24:29;94850.53;;;9.09;100.00
11971;BME280;6045;42.682;23.294;2023-05-10T01:27:20;94850.94;;;9.13;100.00
11971;BME280;6045;42.682;23.294;2023-05-10T01:30:22;94846.41;;;9.13;100.00
11971;BME280;6045;42.682;23.294;2023-05-10T01:33:01;94850.97;;;9.06;100.00
11971;BME280;6045;42.682;23.294;2023-05-10T01:35:38;94838.25;;;9.08;100.00
11971;BME280;6045;42.682;23.294;2023-05-10T01:38:13;94844.81;;;9.06;100.00
11971;BME280;6045;42.682;23.294;2023-05-10T01:40:50;94828.88;;;8.99;100.00
11971;BME280;6045;42.682;23.294;2023-05-10T01:43:26;94831.38;;;8.94;100.00
11971;BME280;6045;42.682;23.294;2023-05-10T01:46:03;94835.44;;;8.97;100.00
11971;BME280;6045;42.682;23.294;2023-05-10T01:48:38;94826.44;;;8.91;100.00
11971;BME280;6045;42.682;23.294;2023-05-10T01:51:09;94832.19;;;8.88;100.00
11971;BME280;6045;42.682;23.294;2023-05-10T01:53:37;94835.50;;;8.90;99.79
11971;BME280;6045;42.682;23.294;2023-05-10T01:56:05;94835.56;;;8.77;99.26
11971;BME280;6045;42.682;23.294;2023-05-10T01:58:36;94833.53;;;8.72;98.76
11971;BME280;6045;42.682;23.294;2023-05-10T02:01:06;94838.91;;;8.66;98.11
11971;BME280;6045;42.682;23.294;2023-05-10T02:03:37;94837.66;;;8.68;97.50
11971;BME280;6045;42.682;23.294;2023-05-10T02:06:05;94827.03;;;8.62;97.63
11971;BME280;6045;42.682;23.294;2023-05-10T02:08:34;94839.31;;;8.63;98.37
11971;BME280;6045;42.682;23.294;2023-05-10T02:11:03;94823.97;;;8.58;98.11
11971;BME280;6045;42.682;23.294;2023-05-10T02:13:32;94826.84;;;8.57;97.66
11971;BME280;6045;42.682;23.294;2023-05-10T02:16:01;94831.97;;;8.58;98.47
11971;BME280;6045;42.682;23.294;2023-05-10T02:18:29;94823.97;;;8.58;97.92
11971;BME280;6045;42.682;23.294;2023-05-10T02:20:59;94838.34;;;8.51;95.82
11971;BME280;6045;42.682;23.294;2023-05-10T02:23:28;94831.84;;;8.40;93.78
11971;BME280;6045;42.682;23.294;2023-05-10T02:25:56;94841.50;;;8.28;91.79
11971;BME280;6045;42.682;23.294;2023-05-10T02:28:26;94839.47;;;8.30;91.67
11971;BME280;6045;42.682;23.294;2023-05-10T02:30:53;94846.03;;;8.14;87.86
11971;BME280;6045;42.682;23.294;2023-05-10T02:33:21;94836.41;;;8.13;86.81
11971;BME280;6045;42.682;23.294;2023-05-10T02:35:50;94839.91;;;8.07;87.22
11971;BME280;6045;42.682;23.294;2023-05-10T02:38:19;94838.31;;;7.93;86.20
11971;BME280;6045;42.682;23.294;2023-05-10T02:40:47;94832.00;;;7.81;85.45
11971;BME280;6045;42.682;23.294;2023-05-10T02:43:15;94831.19;;;7.74;85.25
11971;BME280;6045;42.682;23.294;2023-05-10T02:45:46;94832.00;;;7.81;86.73
11971;BME280;6045;42.682;23.294;2023-05-10T02:48:14;94833.84;;;7.74;86.21
11971;BME280;6045;42.682;23.294;2023-05-10T02:50:44;94828.72;;;7.66;85.68
11971;BME280;6045;42.682;23.294;2023-05-10T02:53:15;94832.22;;;7.60;86.15
11971;BME280;6045;42.682;23.294;2023-05-10T02:55:49;94830.97;;;7.56;86.26
11971;BME280;6045;42.682;23.294;2023-05-10T02:58:17;94825.25;;;7.59;86.43
11971;BME280;6045;42.682;23.294;2023-05-10T03:00:44;94832.63;;;7.57;86.57
11971;BME280;6045;42.682;23.294;2023-05-10T03:03:11;94826.91;;;7.60;87.28
11971;BME280;6045;42.682;23.294;2023-05-10T03:05:38;94835.50;;;7.62;87.40
11971;BME280;6045;42.682;23.294;2023-05-10T03:08:05;94832.63;;;7.57;87.19
11971;BME280;6045;42.682;23.294;2023-05-10T03:10:33;94834.03;;;7.66;87.36
11971;BME280;6045;42.682;23.294;2023-05-10T03:13:12;94846.94;;;7.69;87.52
11971;BME280;6045;42.682;23.294;2023-05-10T03:15:47;94838.38;;;7.61;87.17
11971;BME280;6045;42.682;23.294;2023-05-10T03:18:22;94826.47;;;7.63;86.87
11971;BME280;6045;42.682;23.294;2023-05-10T03:20:50;94830.97;;;7.69;87.12
11971;BME280;6045;42.682;23.294;2023-05-10T03:23:23;94839.56;;;7.71;86.59
11971;BME280;6045;42.682;23.294;2023-05-10T03:25:53;94839.16;;;7.74;86.73
11971;BME280;6045;42.682;23.294;2023-05-10T03:28:24;94852.66;;;7.79;86.42
11971;BME280;6045;42.682;23.294;2023-05-10T03:30:53;94843.66;;;7.74;86.31
11971;BME280;6045;42.682;23.294;2023-05-10T03:33:20;94843.66;;;7.80;86.63
11971;BME280;6045;42.682;23.294;2023-05-10T03:35:49;94844.06;;;7.77;86.22
11971;BME280;6045;42.682;23.294;2023-05-10T03:38:15;94843.88;;;7.72;85.50
11971;BME280;6045;42.682;23.294;2023-05-10T03:40:42;94854.69;;;7.84;86.85
11971;BME280;6045;42.682;23.294;2023-05-10T03:43:09;94851.19;;;7.90;86.75
11971;BME280;6045;42.682;23.294;2023-05-10T03:45:37;94850.97;;;8.04;86.59
11971;BME280;6045;42.682;23.294;2023-05-10T03:48:04;94856.25;;;8.17;87.46
11971;BME280;6045;42.682;23.294;2023-05-10T03:50:31;94846.47;;;9.07;94.69
11971;BME280;6045;42.682;23.294;2023-05-10T03:52:58;94863.13;;;8.95;84.82
11971;BME280;6045;42.682;23.294;2023-05-10T03:55:24;94866.09;;;8.74;83.08
11971;BME280;6045;42.682;23.294;2023-05-10T03:57:51;94862.03;;;8.72;85.47
11971;BME280;6045;42.682;23.294;2023-05-10T04:00:19;94862.03;;;9.41;95.24
11971;BME280;6045;42.682;23.294;2023-05-10T04:02:47;94868.53;;;9.51;89.28
11971;BME280;6045;42.682;23.294;2023-05-10T04:05:14;94863.00;;;9.46;86.92
11971;BME280;6045;42.682;23.294;2023-05-10T04:07:41;94872.25;;;9.69;82.60
11971;BME280;6045;42.682;23.294;2023-05-10T04:10:09;94866.09;;;9.68;81.66
11971;BME280;6045;42.682;23.294;2023-05-10T04:12:36;94871.72;;;9.60;83.98
11971;BME280;6045;42.682;23.294;2023-05-10T04:15:04;94869.78;;;9.92;84.66
11971;BME280;6045;42.682;23.294;2023-05-10T04:17:31;94877.22;;;9.90;80.97
11971;BME280;6045;42.682;23.294;2023-05-10T04:19:59;94872.84;;;9.71;81.80
11971;BME280;6045;42.682;23.294;2023-05-10T04:22:26;94870.94;;;9.78;83.03
11971;BME280;6045;42.682;23.294;2023-05-10T04:24:54;94879.97;;;9.58;80.75
11971;BME280;6045;42.682;23.294;2023-05-10T04:27:21;94879.13;;;9.58;83.15
11971;BME280;6045;42.682;23.294;2023-05-10T04:29:50;94877.47;;;9.32;80.94
11971;BME280;6045;42.682;23.294;2023-05-10T04:32:20;94877.06;;;9.29;82.81
11971;BME280;6045;42.682;23.294;2023-05-10T04:34:47;94881.75;;;9.02;82.80
11971;BME280;6045;42.682;23.294;2023-05-10T04:37:15;94878.66;;;9.05;83.31
11971;BME280;6045;42.682;23.294;2023-05-10T04:39:51;94878.94;;;8.97;82.67
11971;BME280;6045;42.682;23.294;2023-05-10T04:42:18;94876.31;;;8.84;84.23
11971;BME280;6045;42.682;23.294;2023-05-10T04:44:47;94880.03;;;9.14;87.88
11971;BME280;6045;42.682;23.294;2023-05-10T04:47:14;94879.66;;;9.42;88.17
11971;BME280;6045;42.682;23.294;2023-05-10T04:49:43;94881.75;;;9.64;87.89
11971;BME280;6045;42.682;23.294;2023-05-10T04:52:10;94875.53;;;9.46;85.11
11971;BME280;6045;42.682;23.294;2023-05-10T04:54:38;94875.78;;;9.87;87.92
11971;BME280;6045;42.682;23.294;2023-05-10T04:57:04;94873.53;;;9.91;83.95
11971;BME280;6045;42.682;23.294;2023-05-10T04:59:31;94877.81;;;9.67;82.17
11971;BME280;6045;42.682;23.294;2023-05-10T05:01:58;94883.53;;;9.46;81.30
11971;BME280;6045;42.682;23.294;2023-05-10T05:04:24;94878.41;;;9.69;85.57
11971;BME280;6045;42.682;23.294;2023-05-10T05:06:51;94881.59;;;9.28;81.66
11971;BME280;6045;42.682;23.294;2023-05-10T05:09:18;94882.09;;;9.12;82.71
11971;BME280;6045;42.682;23.294;2023-05-10T05:11:46;94881.72;;;9.09;82.79
11971;BME280;6045;42.682;23.294;2023-05-10T05:14:13;94895.84;;;9.09;83.90
11971;BME280;6045;42.682;23.294;2023-05-10T05:16:40;94894.06;;;9.03;82.67
11971;BME280;6045;42.682;23.294;2023-05-10T05:19:07;94897.41;;;8.92;83.14
11971;BME280;6045;42.682;23.294;2023-05-10T05:21:33;94901.50;;;8.88;84.15
11971;BME280;6045;42.682;23.294;2023-05-10T05:24:00;94901.81;;;9.05;85.67
11971;BME280;6045;42.682;23.294;2023-05-10T05:26:27;94894.66;;;9.05;84.47
11971;BME280;6045;42.682;23.294;2023-05-10T05:28:55;94907.59;;;9.02;84.45
11971;BME280;6045;42.682;23.294;2023-05-10T05:31:22;94896.53;;;8.98;84.31
11971;BME280;6045;42.682;23.294;2023-05-10T05:33:49;94902.59;;;9.12;83.87
11971;BME280;6045;42.682;23.294;2023-05-10T05:36:15;94907.16;;;9.05;83.92
11971;BME280;6045;42.682;23.294;2023-05-10T05:38:42;94906.00;;;8.94;83.74
11971;BME280;6045;42.682;23.294;2023-05-10T05:41:09;94907.69;;;8.82;84.14
11971;BME280;6045;42.682;23.294;2023-05-10T05:43:36;94902.13;;;8.83;86.01
11971;BME280;6045;42.682;23.294;2023-05-10T05:46:04;94908.91;;;8.86;85.34
11971;BME280;6045;42.682;23.294;2023-05-10T05:48:31;94910.69;;;8.99;86.36
11971;BME280;6045;42.682;23.294;2023-05-10T05:50:57;94909.69;;;8.93;86.25
11971;BME280;6045;42.682;23.294;2023-05-10T05:53:25;94913.59;;;8.97;86.77
11971;BME280;6045;42.682;23.294;2023-05-10T05:55:52;94917.53;;;8.81;86.75
11971;BME280;6045;42.682;23.294;2023-05-10T05:58:19;94918.31;;;8.88;87.35
11971;BME280;6045;42.682;23.294;2023-05-10T06:00:46;94921.56;;;8.97;87.09
11971;BME280;6045;42.682;23.294;2023-05-10T06:03:14;94912.16;;;8.94;86.80
11971;BME280;6045;42.682;23.294;2023-05-10T06:05:41;94915.78;;;9.00;87.75
11971;BME280;6045;42.682;23.294;2023-05-10T06:08:08;94914.13;;;9.06;87.49
11971;BME280;6045;42.682;23.294;2023-05-10T06:10:35;94917.91;;;8.91;86.86
11971;BME280;6045;42.682;23.294;2023-05-10T06:13:01;94921.91;;;9.07;87.71
11971;BME280;6045;42.682;23.294;2023-05-10T06:15:29;94912.91;;;9.08;87.25
11971;BME280;6045;42.682;23.294;2023-05-10T06:17:56;94925.97;;;9.16;87.21
11971;BME280;6045;42.682;23.294;2023-05-10T06:20:24;94922.00;;;9.32;86.86
11971;BME280;6045;42.682;23.294;2023-05-10T06:22:50;94922.06;;;9.50;86.20
11971;BME280;6045;42.682;23.294;2023-05-10T06:25:17;94927.63;;;9.48;85.77
11971;BME280;6045;42.682;23.294;2023-05-10T06:27:44;94932.38;;;9.46;85.79
11971;BME280;6045;42.682;23.294;2023-05-10T06:30:11;94936.41;;;9.55;85.01
11971;BME280;6045;42.682;23.294;2023-05-10T06:32:40;94928.53;;;9.67;84.76
11971;BME280;6045;42.682;23.294;2023-05-10T06:35:09;94930.94;;;9.44;83.70
11971;BME280;6045;42.682;23.294;2023-05-10T06:37:37;94934.41;;;9.51;84.65
11971;BME280;6045;42.682;23.294;2023-05-10T06:40:05;94930.34;;;9.42;84.50
11971;BME280;6045;42.682;23.294;2023-05-10T06:42:32;94928.66;;;9.47;84.54
11971;BME280;6045;42.682;23.294;2023-05-10T06:44:59;94934.16;;;9.52;84.35
11971;BME280;6045;42.682;23.294;2023-05-10T06:47:25;94934.72;;;9.61;83.89
11971;BME280;6045;42.682;23.294;2023-05-10T06:49:52;94935.22;;;9.76;83.71
11971;BME280;6045;42.682;23.294;2023-05-10T06:52:19;94926.75;;;9.86;85.35
11971;BME280;6045;42.682;23.294;2023-05-10T06:54:47;94932.84;;;9.93;84.07
11971;BME280;6045;42.682;23.294;2023-05-10T06:57:14;94939.28;;;10.10;82.01
11971;BME280;6045;42.682;23.294;2023-05-10T06:59:41;94936.06;;;10.01;80.97
11971;BME280;6045;42.682;23.294;2023-05-10T07:02:07;94942.50;;;9.94;79.55
11971;BME280;6045;42.682;23.294;2023-05-10T07:04:34;94951.03;;;9.78;79.95
11971;BME280;6045;42.682;23.294;2023-05-10T07:07:01;94948.22;;;9.66;80.97
11971;BME280;6045;42.682;23.294;2023-05-10T07:09:28;94949.06;;;9.67;81.07
11971;BME280;6045;42.682;23.294;2023-05-10T07:11:56;94955.75;;;9.76;81.11
11971;BME280;6045;42.682;23.294;2023-05-10T07:14:23;94940.81;;;9.68;79.58
11971;BME280;6045;42.682;23.294;2023-05-10T07:16:50;94945.03;;;9.57;80.75
11971;BME280;6045;42.682;23.294;2023-05-10T07:19:16;94947.25;;;9.60;81.13
11971;BME280;6045;42.682;23.294;2023-05-10T07:21:43;94958.19;;;9.52;80.30
11971;BME280;6045;42.682;23.294;2023-05-10T07:24:11;94947.50;;;9.52;81.26
11971;BME280;6045;42.682;23.294;2023-05-10T07:26:38;94964.56;;;9.51;80.24
11971;BME280;6045;42.682;23.294;2023-05-10T07:29:06;94960.72;;;9.41;80.95
11971;BME280;6045;42.682;23.294;2023-05-10T07:31:32;94960.25;;;9.50;81.17
11971;BME280;6045;42.682;23.294;2023-05-10T07:33:59;94956.41;;;9.40;80.65
11971;BME280;6045;42.682;23.294;2023-05-10T07:36:26;94962.75;;;9.45;80.24
11971;BME280;6045;42.682;23.294;2023-05-10T07:38:53;94963.81;;;9.38;81.55
11971;BME280;6045;42.682;23.294;2023-05-10T07:41:19;94959.53;;;9.30;80.95
11971;BME280;6045;42.682;23.294;2023-05-10T07:43:47;94957.91;;;9.29;81.87
11971;BME280;6045;42.682;23.294;2023-05-10T07:46:15;94957.53;;;9.19;81.41
11971;BME280;6045;42.682;23.294;2023-05-10T07:48:42;94955.06;;;9.24;80.83
11971;BME280;6045;42.682;23.294;2023-05-10T07:51:09;94961.19;;;9.31;82.02
11971;BME280;6045;42.682;23.294;2023-05-10T07:53:36;94963.84;;;9.31;80.98
11971;BME280;6045;42.682;23.294;2023-05-10T07:56:20;94960.44;;;9.55;81.58
11971;BME280;6045;42.682;23.294;2023-05-10T07:58:47;94966.72;;;9.68;80.85
11971;BME280;6045;42.682;23.294;2023-05-10T08:01:15;94963.53;;;9.52;79.37
11971;BME280;6045;42.682;23.294;2023-05-10T08:03:42;94965.94;;;9.60;80.21
11971;BME280;6045;42.682;23.294;2023-05-10T08:06:09;94972.81;;;9.75;80.34
11971;BME280;6045;42.682;23.294;2023-05-10T08:08:35;94976.28;;;9.82;79.50
11971;BME280;6045;42.682;23.294;2023-05-10T08:11:03;94965.72;;;9.93;78.89
11971;BME280;6045;42.682;23.294;2023-05-10T08:13:30;94962.75;;;10.01;78.86
11971;BME280;6045;42.682;23.294;2023-05-10T08:15:57;94964.59;;;9.76;78.02
11971;BME280;6045;42.682;23.294;2023-05-10T08:18:26;94973.66;;;9.69;78.66
11971;BME280;6045;42.682;23.294;2023-05-10T08:20:52;94963.06;;;9.62;78.63
11971;BME280;6045;42.682;23.294;2023-05-10T08:23:19;94964.16;;;9.79;79.70
11971;BME280;6045;42.682;23.294;2023-05-10T08:25:46;94978.88;;;9.88;79.53
11971;BME280;6045;42.682;23.294;2023-05-10T08:28:13;94966.06;;;9.97;80.25
11971;BME280;6045;42.682;23.294;2023-05-10T08:30:40;94965.13;;;10.16;80.11
11971;BME280;6045;42.682;23.294;2023-05-10T08:33:07;94977.53;;;10.04;78.63
11971;BME280;6045;42.682;23.294;2023-05-10T08:35:37;94981.03;;;9.73;79.04
11971;BME280;6045;42.682;23.294;2023-05-10T08:38:04;94973.66;;;9.69;80.43
11971;BME280;6045;42.682;23.294;2023-05-10T08:40:31;94981.78;;;9.87;81.49
11971;BME280;6045;42.682;23.294;2023-05-10T08:42:59;94963.78;;;9.76;81.00
11971;BME280;6045;42.682;23.294;2023-05-10T08:45:32;94973.78;;;9.87;82.25
11971;BME280;6045;42.682;23.294;2023-05-10T08:48:00;94971.31;;;10.10;82.87
11971;BME280;6045;42.682;23.294;2023-05-10T08:50:27;94972.13;;;9.86;81.29
11971;BME280;6045;42.682;23.294;2023-05-10T08:53:00;94974.84;;;9.79;82.05
11971;BME280;6045;42.682;23.294;2023-05-10T08:55:27;94970.69;;;9.83;81.93
11971;BME280;6045;42.682;23.294;2023-05-10T08:57:54;94973.13;;;9.91;82.09
11971;BME280;6045;42.682;23.294;2023-05-10T09:00:21;94974.78;;;10.17;82.48
11971;BME280;6045;42.682;23.294;2023-05-10T09:02:49;94978.13;;;10.12;81.38
11971;BME280;6045;42.682;23.294;2023-05-10T09:05:16;94969.56;;;10.28;81.29
11971;BME280;6045;42.682;23.294;2023-05-10T09:07:43;94959.81;;;10.34;80.95
11971;BME280;6045;42.682;23.294;2023-05-10T09:10:11;94980.84;;;10.30;80.21
11971;BME280;6045;42.682;23.294;2023-05-10T09:12:40;94970.84;;;10.44;81.62
11971;BME280;6045;42.682;23.294;2023-05-10T09:15:07;94974.06;;;10.28;79.89
11971;BME280;6045;42.682;23.294;2023-05-10T09:17:36;94978.13;;;10.06;80.42
11971;BME280;6045;42.682;23.294;2023-05-10T09:20:04;94974.78;;;10.10;80.58
11971;BME280;6045;42.682;23.294;2023-05-10T09:22:31;94972.19;;;10.04;80.45
11971;BME280;6045;42.682;23.294;2023-05-10T09:25:06;94966.53;;;9.94;80.49
11971;BME280;6045;42.682;23.294;2023-05-10T09:27:35;94964.63;;;10.01;80.76
11971;BME280;6045;42.682;23.294;2023-05-10T09:30:02;94966.47;;;10.00;81.24
11971;BME280;6045;42.682;23.294;2023-05-10T09:32:39;94975.13;;;9.96;78.79
11971;BME280;6045;42.682;23.294;2023-05-10T09:35:08;94967.44;;;10.12;80.83
11971;BME280;6045;42.682;23.294;2023-05-10T09:37:35;94978.72;;;10.14;77.94
11971;BME280;6045;42.682;23.294;2023-05-10T09:40:05;94970.09;;;10.06;79.17
11971;BME280;6045;42.682;23.294;2023-05-10T09:42:34;94959.78;;;10.16;79.82
11971;BME280;6045;42.682;23.294;2023-05-10T09:45:02;94962.38;;;9.98;78.30
11971;BME280;6045;42.682;23.294;2023-05-10T09:47:31;94965.81;;;10.05;79.57
11971;BME280;6045;42.682;23.294;2023-05-10T09:49:58;94970.03;;;10.19;78.68
11971;BME280;6045;42.682;23.294;2023-05-10T09:52:29;94969.69;;;10.09;78.01
11971;BME280;6045;42.682;23.294;2023-05-10T09:54:56;94968.97;;;10.26;78.87
11971;BME280;6045;42.682;23.294;2023-05-10T09:57:24;94957.53;;;10.38;77.64
11971;BME280;6045;42.682;23.294;2023-05-10T09:59:52;94954.38;;;10.47;77.95
11971;BME280;6045;42.682;23.294;2023-05-10T10:02:21;94959.97;;;10.64;77.35
11971;BME280;6045;42.682;23.294;2023-05-10T10:04:55;94949.94;;;10.59;76.50
11971;BME280;6045;42.682;23.294;2023-05-10T10:07:22;94953.63;;;10.58;75.74
11971;BME280;6045;42.682;23.294;2023-05-10T10:09:50;94944.00;;;10.75;76.79
11971;BME280;6045;42.682;23.294;2023-05-10T10:12:17;94957.38;;;10.75;75.52
11971;BME280;6045;42.682;23.294;2023-05-10T10:14:46;94940.56;;;10.68;76.04
11971;BME280;6045;42.682;23.294;2023-05-10T10:17:14;94926.38;;;10.68;75.64
11971;BME280;6045;42.682;23.294;2023-05-10T10:19:41;94935.53;;;10.78;75.91
11971;BME280;6045;42.682;23.294;2023-05-10T10:22:08;94928.84;;;10.87;75.82
11971;BME280;6045;42.682;23.294;2023-05-10T10:24:37;94939.22;;;11.14;76.12
11971;BME280;6045;42.682;23.294;2023-05-10T10:27:09;94937.81;;;11.11;74.95
11971;BME280;6045;42.682;23.294;2023-05-10T10:29:47;94937.56;;;11.13;74.49
11971;BME280;6045;42.682;23.294;2023-05-10T10:32:25;94933.09;;;11.25;74.36
11971;BME280;6045;42.682;23.294;2023-05-10T10:34:55;94939.06;;;11.09;74.02
11971;BME280;6045;42.682;23.294;2023-05-10T10:37:22;94941.16;;;10.88;74.52
11971;BME280;6045;42.682;23.294;2023-05-10T10:39:49;94941.75;;;10.90;75.73
11971;BME280;6045;42.682;23.294;2023-05-10T10:42:43;94942.28;;;10.81;74.84
11971;BME280;6045;42.682;23.294;2023-05-10T10:45:13;94939.09;;;10.72;74.48
11971;BME280;6045;42.682;23.294;2023-05-10T10:47:41;94947.25;;;10.59;75.63
11971;BME280;6045;42.682;23.294;2023-05-10T10:50:09;94948.44;;;10.45;76.46
11971;BME280;6045;42.682;23.294;2023-05-10T10:52:38;94943.00;;;10.52;76.87
11971;BME280;6045;42.682;23.294;2023-05-10T10:55:07;94945.53;;;10.65;76.03
11971;BME280;6045;42.682;23.294;2023-05-10T10:57:44;94936.56;;;10.77;75.58
11971;BME280;6045;42.682;23.294;2023-05-10T11:00:21;94931.06;;;10.72;75.37
11971;BME280;6045;42.682;23.294;2023-05-10T11:02:50;94930.31;;;10.65;75.33
11971;BME280;6045;42.682;23.294;2023-05-10T11:05:35;94944.13;;;10.62;76.06
11971;BME280;6045;42.682;23.294;2023-05-10T11:08:17;94944.66;;;10.71;76.49
11971;BME280;6045;42.682;23.294;2023-05-10T11:10:52;94942.41;;;10.86;75.71
11971;BME280;6045;42.682;23.294;2023-05-10T11:13:27;94942.81;;;10.89;75.69
11971;BME280;6045;42.682;23.294;2023-05-10T11:15:55;94941.47;;;10.98;75.25
11971;BME280;6045;42.682;23.294;2023-05-10T11:18:26;94935.81;;;10.88;75.15
11971;BME280;6045;42.682;23.294;2023-05-10T11:20:57;94935.88;;;11.00;75.76
11971;BME280;6045;42.682;23.294;2023-05-10T11:23:29;94934.75;;;11.08;75.72
11971;BME280;6045;42.682;23.294;2023-05-10T11:25:56;94939.44;;;11.12;74.32
11971;BME280;6045;42.682;23.294;2023-05-10T11:28:23;94944.09;;;11.17;73.53
11971;BME280;6045;42.682;23.294;2023-05-10T11:30:51;94951.41;;;11.10;73.88
11971;BME280;6045;42.682;23.294;2023-05-10T11:33:18;94932.41;;;10.99;74.01
11971;BME280;6045;42.682;23.294;2023-05-10T11:35:47;94943.91;;;11.00;74.17
11971;BME280;6045;42.682;23.294;2023-05-10T11:38:14;94949.25;;;11.00;74.33
11971;BME280;6045;42.682;23.294;2023-05-10T11:40:41;94934.94;;;10.94;74.71
11971;BME280;6045;42.682;23.294;2023-05-10T11:43:09;94938.44;;;10.95;75.86
11971;BME280;6045;42.682;23.294;2023-05-10T11:45:37;94935.00;;;11.06;75.09
11971;BME280;6045;42.682;23.294;2023-05-10T11:48:04;94938.78;;;10.98;75.66
11971;BME280;6045;42.682;23.294;2023-05-10T11:50:31;94937.81;;;11.11;75.77
11971;BME280;6045;42.682;23.294;2023-05-10T11:52:59;94932.09;;;11.08;75.82
11971;BME280;6045;42.682;23.294;2023-05-10T11:55:26;94929.19;;;11.09;75.17
11971;BME280;6045;42.682;23.294;2023-05-10T11:57:53;94933.16;;;11.07;75.42
11971;BME280;6045;42.682;23.294;2023-05-10T12:00:20;94922.34;;;11.13;76.17
11971;BME280;6045;42.682;23.294;2023-05-10T12:02:47;94938.78;;;10.98;75.89
11971;BME280;6045;42.682;23.294;2023-05-10T12:05:15;94940.56;;;10.86;75.93
11971;BME280;6045;42.682;23.294;2023-05-10T12:07:42;94935.31;;;10.80;76.33
11971;BME280;6045;42.682;23.294;2023-05-10T12:10:12;94928.69;;;10.82;76.76
11971;BME280;6045;42.682;23.294;2023-05-10T12:12:40;94923.13;;;11.02;76.51
11971;BME280;6045;42.682;23.294;2023-05-10T12:15:12;94923.31;;;11.00;76.24
11971;BME280;6045;42.682;23.294;2023-05-10T12:17:44;94919.03;;;10.99;76.18
11971;BME280;6045;42.682;23.294;2023-05-10T12:20:15;94930.91;;;11.04;75.97
11971;BME280;6045;42.682;23.294;2023-05-10T12:22:44;94917.28;;;11.05;76.48
11971;BME280;6045;42.682;23.294;2023-05-10T12:25:13;94915.22;;;11.07;75.89
11971;BME280;6045;42.682;23.294;2023-05-10T12:27:39;94919.16;;;11.05;75.78
11971;BME280;6045;42.682;23.294;2023-05-10T12:30:07;94922.66;;;11.05;75.63
11971;BME280;6045;42.682;23.294;2023-05-10T12:32:38;94921.47;;;11.01;76.21
11971;BME280;6045;42.682;23.294;2023-05-10T12:35:06;94920.50;;;10.95;76.36
11971;BME280;6045;42.682;23.294;2023-05-10T12:37:33;94914.22;;;11.20;76.72
11971;BME280;6045;42.682;23.294;2023-05-10T12:40:05;94904.13;;;11.22;75.43
11971;BME280;6045;42.682;23.294;2023-05-10T12:42:34;94895.09;;;11.34;75.50
11971;BME280;6045;42.682;23.294;2023-05-10T12:45:02;94899.41;;;11.35;74.62
11971;BME280;6045;42.682;23.294;2023-05-10T12:47:29;94908.97;;;11.43;74.82
11971;BME280;6045;42.682;23.294;2023-05-10T12:49:55;94893.13;;;11.30;74.78
11971;BME280;6045;42.682;23.294;2023-05-10T12:52:22;94913.94;;;11.10;75.13
11971;BME280;6045;42.682;23.294;2023-05-10T12:54:49;94898.91;;;10.97;76.11
11971;BME280;6045;42.682;23.294;2023-05-10T12:57:16;94896.75;;;10.87;76.25
11971;BME280;6045;42.682;23.294;2023-05-10T12:59:44;94894.00;;;10.94;76.89
11971;BME280;6045;42.682;23.294;2023-05-10T13:02:11;94887.69;;;10.88;76.32
11971;BME280;6045;42.682;23.294;2023-05-10T13:04:38;94893.94;;;10.82;77.07
11971;BME280;6045;42.682;23.294;2023-05-10T13:07:05;94885.91;;;10.82;78.15
11971;BME280;6045;42.682;23.294;2023-05-10T13:09:32;94876.78;;;10.90;77.68
11971;BME280;6045;42.682;23.294;2023-05-10T13:11:58;94887.09;;;10.86;77.10